Terminal Aerodrome Forecast
Issued by NWS

Home | Current Version | Previous Version | Text Only | Print | Product List | Glossary On
Versions: 1 2 3 4 5 6 7 8 9 10 11 12 13 14 15 16 17 18 19 20
000
FTUS44 KLZK 271700 RRA
TAFLLQ
TAF
KLLQ 271751Z 2718/2818 12006KT P6SM VCSH FEW004 FEW040 BKN120
     FM272000 15004KT P6SM FEW030 SCT100 SCT250
     FM280100 VRB02KT P6SM SCT250
     FM281000 00000KT 2SM BR BKN015=

USA.gov is the U.S. government's official web portal to all federal, state and local government web resources and services.